sensor_id;sensor_type;location;lat;lon;timestamp;P1;durP1;ratioP1;P2;durP2;ratioP2
3311;SDS011;1668;49.648;8.570;2022-08-11T00:02:16;6.10;;;2.40;;
3311;SDS011;1668;49.648;8.570;2022-08-11T00:04:53;3.20;;;2.23;;
3311;SDS011;1668;49.648;8.570;2022-08-11T00:07:21;3.70;;;2.23;;
3311;SDS011;1668;49.648;8.570;2022-08-11T00:09:50;4.70;;;2.37;;
3311;SDS011;1668;49.648;8.570;2022-08-11T00:12:18;2.93;;;2.20;;
3311;SDS011;1668;49.648;8.570;2022-08-11T00:14:45;4.00;;;2.30;;
3311;SDS011;1668;49.648;8.570;2022-08-11T00:17:25;3.17;;;2.30;;
3311;SDS011;1668;49.648;8.570;2022-08-11T00:19:53;4.97;;;2.13;;
3311;SDS011;1668;49.648;8.570;2022-08-11T00:22:28;5.60;;;2.53;;
3311;SDS011;1668;49.648;8.570;2022-08-11T00:24:56;6.53;;;2.70;;
3311;SDS011;1668;49.648;8.570;2022-08-11T00:27:30;4.63;;;2.10;;
3311;SDS011;1668;49.648;8.570;2022-08-11T00:29:58;3.13;;;2.10;;
3311;SDS011;1668;49.648;8.570;2022-08-11T00:32:26;3.27;;;2.23;;
3311;SDS011;1668;49.648;8.570;2022-08-11T00:34:54;3.20;;;1.90;;
3311;SDS011;1668;49.648;8.570;2022-08-11T00:37:23;3.60;;;2.40;;
3311;SDS011;1668;49.648;8.570;2022-08-11T00:39:51;2.83;;;2.33;;
3311;SDS011;1668;49.648;8.570;2022-08-11T00:42:23;2.63;;;1.97;;
3311;SDS011;1668;49.648;8.570;2022-08-11T00:45:01;3.47;;;2.60;;
3311;SDS011;1668;49.648;8.570;2022-08-11T00:47:39;2.67;;;2.20;;
3311;SDS011;1668;49.648;8.570;2022-08-11T00:50:17;3.80;;;2.20;;
3311;SDS011;1668;49.648;8.570;2022-08-11T00:52:55;3.40;;;2.57;;
3311;SDS011;1668;49.648;8.570;2022-08-11T00:55:37;3.90;;;2.20;;
3311;SDS011;1668;49.648;8.570;2022-08-11T01:01:21;5.07;;;2.27;;
3311;SDS011;1668;49.648;8.570;2022-08-11T01:04:13;4.43;;;2.20;;
3311;SDS011;1668;49.648;8.570;2022-08-11T01:07:17;3.87;;;2.70;;
3311;SDS011;1668;49.648;8.570;2022-08-11T01:13:43;3.97;;;2.67;;
3311;SDS011;1668;49.648;8.570;2022-08-11T01:20:00;4.97;;;2.80;;
3311;SDS011;1668;49.648;8.570;2022-08-11T01:25:47;2.00;;;1.80;;
3311;SDS011;1668;49.648;8.570;2022-08-11T01:28:45;4.73;;;2.53;;
3311;SDS011;1668;49.648;8.570;2022-08-11T01:31:35;3.47;;;1.97;;
3311;SDS011;1668;49.648;8.570;2022-08-11T01:34:20;2.73;;;2.40;;
3311;SDS011;1668;49.648;8.570;2022-08-11T01:37:31;3.17;;;2.07;;
3311;SDS011;1668;49.648;8.570;2022-08-11T01:40:33;4.13;;;2.70;;
3311;SDS011;1668;49.648;8.570;2022-08-11T01:43:26;4.67;;;2.20;;
3311;SDS011;1668;49.648;8.570;2022-08-11T01:46:31;2.73;;;2.40;;
3311;SDS011;1668;49.648;8.570;2022-08-11T01:49:03;5.13;;;2.77;;
3311;SDS011;1668;49.648;8.570;2022-08-11T01:51:42;3.03;;;2.30;;
3311;SDS011;1668;49.648;8.570;2022-08-11T01:54:19;3.57;;;2.47;;
3311;SDS011;1668;49.648;8.570;2022-08-11T01:56:57;2.43;;;2.20;;
3311;SDS011;1668;49.648;8.570;2022-08-11T01:59:36;4.83;;;2.50;;
3311;SDS011;1668;49.648;8.570;2022-08-11T02:05:25;2.40;;;1.90;;
3311;SDS011;1668;49.648;8.570;2022-08-11T02:08:02;3.17;;;2.50;;
3311;SDS011;1668;49.648;8.570;2022-08-11T02:10:39;3.70;;;2.20;;
3311;SDS011;1668;49.648;8.570;2022-08-11T02:13:35;2.90;;;2.30;;
3311;SDS011;1668;49.648;8.570;2022-08-11T02:16:13;3.97;;;2.40;;
3311;SDS011;1668;49.648;8.570;2022-08-11T02:18:45;4.23;;;2.70;;
3311;SDS011;1668;49.648;8.570;2022-08-11T02:21:37;3.33;;;2.50;;
3311;SDS011;1668;49.648;8.570;2022-08-11T02:24:29;2.80;;;2.30;;
3311;SDS011;1668;49.648;8.570;2022-08-11T02:27:07;2.60;;;2.10;;
3311;SDS011;1668;49.648;8.570;2022-08-11T02:29:42;3.33;;;2.30;;
3311;SDS011;1668;49.648;8.570;2022-08-11T02:32:16;3.40;;;2.53;;
3311;SDS011;1668;49.648;8.570;2022-08-11T02:35:07;5.10;;;2.60;;
3311;SDS011;1668;49.648;8.570;2022-08-11T02:37:45;4.43;;;2.43;;
3311;SDS011;1668;49.648;8.570;2022-08-11T02:40:22;3.10;;;2.60;;
3311;SDS011;1668;49.648;8.570;2022-08-11T02:43:12;7.13;;;2.33;;
3311;SDS011;1668;49.648;8.570;2022-08-11T02:45:54;4.17;;;2.50;;
3311;SDS011;1668;49.648;8.570;2022-08-11T02:48:37;3.47;;;2.60;;
3311;SDS011;1668;49.648;8.570;2022-08-11T02:51:31;3.20;;;2.40;;
3311;SDS011;1668;49.648;8.570;2022-08-11T02:54:07;3.03;;;2.10;;
3311;SDS011;1668;49.648;8.570;2022-08-11T02:56:42;3.90;;;2.20;;
3311;SDS011;1668;49.648;8.570;2022-08-11T02:59:23;3.53;;;2.53;;
3311;SDS011;1668;49.648;8.570;2022-08-11T03:02:16;5.17;;;2.40;;
3311;SDS011;1668;49.648;8.570;2022-08-11T03:05:11;4.80;;;2.30;;
3311;SDS011;1668;49.648;8.570;2022-08-11T03:07:49;4.70;;;2.67;;
3311;SDS011;1668;49.648;8.570;2022-08-11T03:10:24;3.57;;;2.43;;
3311;SDS011;1668;49.648;8.570;2022-08-11T03:13:00;3.53;;;2.17;;
3311;SDS011;1668;49.648;8.570;2022-08-11T03:15:59;4.30;;;2.60;;
3311;SDS011;1668;49.648;8.570;2022-08-11T03:18:53;4.80;;;2.90;;
3311;SDS011;1668;49.648;8.570;2022-08-11T03:21:39;4.30;;;2.33;;
3311;SDS011;1668;49.648;8.570;2022-08-11T03:24:14;3.00;;;2.10;;
3311;SDS011;1668;49.648;8.570;2022-08-11T03:26:50;6.47;;;2.87;;
3311;SDS011;1668;49.648;8.570;2022-08-11T03:29:29;5.03;;;2.50;;
3311;SDS011;1668;49.648;8.570;2022-08-11T03:32:03;5.30;;;2.80;;
3311;SDS011;1668;49.648;8.570;2022-08-11T03:34:35;2.77;;;2.40;;
3311;SDS011;1668;49.648;8.570;2022-08-11T03:37:06;3.00;;;2.43;;
3311;SDS011;1668;49.648;8.570;2022-08-11T03:40:02;3.40;;;2.60;;
3311;SDS011;1668;49.648;8.570;2022-08-11T03:42:41;5.40;;;2.60;;
3311;SDS011;1668;49.648;8.570;2022-08-11T03:45:16;3.93;;;2.83;;
3311;SDS011;1668;49.648;8.570;2022-08-11T03:47:59;3.33;;;2.40;;
3311;SDS011;1668;49.648;8.570;2022-08-11T03:50:44;3.70;;;2.73;;
3311;SDS011;1668;49.648;8.570;2022-08-11T03:53:22;3.10;;;2.30;;
3311;SDS011;1668;49.648;8.570;2022-08-11T04:02:26;4.27;;;2.40;;
3311;SDS011;1668;49.648;8.570;2022-08-11T04:11:19;4.97;;;3.40;;
3311;SDS011;1668;49.648;8.570;2022-08-11T04:14:22;5.63;;;2.90;;
3311;SDS011;1668;49.648;8.570;2022-08-11T04:29:22;11.03;;;3.23;;
3311;SDS011;1668;49.648;8.570;2022-08-11T04:32:07;6.63;;;3.30;;
3311;SDS011;1668;49.648;8.570;2022-08-11T04:37:48;9.13;;;3.70;;
3311;SDS011;1668;49.648;8.570;2022-08-11T04:40:54;5.70;;;4.07;;
3311;SDS011;1668;49.648;8.570;2022-08-11T04:47:05;6.67;;;3.73;;
3311;SDS011;1668;49.648;8.570;2022-08-11T04:50:16;5.27;;;3.50;;
3311;SDS011;1668;49.648;8.570;2022-08-11T04:53:18;7.53;;;3.90;;
3311;SDS011;1668;49.648;8.570;2022-08-11T04:56:14;5.63;;;3.90;;
3311;SDS011;1668;49.648;8.570;2022-08-11T05:02:35;5.70;;;3.40;;
3311;SDS011;1668;49.648;8.570;2022-08-11T05:05:28;4.60;;;3.93;;
3311;SDS011;1668;49.648;8.570;2022-08-11T05:08:48;7.40;;;4.13;;
3311;SDS011;1668;49.648;8.570;2022-08-11T05:11:34;4.40;;;3.60;;
3311;SDS011;1668;49.648;8.570;2022-08-11T05:17:24;6.90;;;4.27;;
3311;SDS011;1668;49.648;8.570;2022-08-11T05:20:17;9.80;;;4.00;;
3311;SDS011;1668;49.648;8.570;2022-08-11T05:23:03;9.87;;;4.40;;
3311;SDS011;1668;49.648;8.570;2022-08-11T05:25:50;7.90;;;4.10;;
3311;SDS011;1668;49.648;8.570;2022-08-11T05:28:39;8.40;;;3.73;;
3311;SDS011;1668;49.648;8.570;2022-08-11T05:31:31;5.77;;;3.63;;
3311;SDS011;1668;49.648;8.570;2022-08-11T05:34:20;10.60;;;4.20;;
3311;SDS011;1668;49.648;8.570;2022-08-11T05:37:07;8.53;;;4.33;;
3311;SDS011;1668;49.648;8.570;2022-08-11T05:39:40;4.80;;;3.70;;
3311;SDS011;1668;49.648;8.570;2022-08-11T05:42:28;9.53;;;3.50;;
3311;SDS011;1668;49.648;8.570;2022-08-11T05:45:15;9.90;;;4.17;;
3311;SDS011;1668;49.648;8.570;2022-08-11T05:48:01;10.07;;;4.80;;
3311;SDS011;1668;49.648;8.570;2022-08-11T05:50:51;15.90;;;4.40;;
3311;SDS011;1668;49.648;8.570;2022-08-11T05:53:44;8.53;;;4.17;;
3311;SDS011;1668;49.648;8.570;2022-08-11T05:56:31;15.90;;;4.47;;
3311;SDS011;1668;49.648;8.570;2022-08-11T05:58:59;11.33;;;4.60;;
3311;SDS011;1668;49.648;8.570;2022-08-11T06:01:27;13.27;;;4.53;;
3311;SDS011;1668;49.648;8.570;2022-08-11T06:03:56;10.13;;;4.87;;
3311;SDS011;1668;49.648;8.570;2022-08-11T06:06:46;8.17;;;4.63;;
3311;SDS011;1668;49.648;8.570;2022-08-11T06:09:31;5.30;;;3.53;;
3311;SDS011;1668;49.648;8.570;2022-08-11T06:12:00;9.70;;;3.17;;
3311;SDS011;1668;49.648;8.570;2022-08-11T06:14:29;7.90;;;3.53;;
3311;SDS011;1668;49.648;8.570;2022-08-11T06:16:59;7.13;;;3.30;;
3311;SDS011;1668;49.648;8.570;2022-08-11T06:19:33;3.97;;;3.57;;
3311;SDS011;1668;49.648;8.570;2022-08-11T06:22:03;6.27;;;2.83;;
3311;SDS011;1668;49.648;8.570;2022-08-11T06:24:31;4.40;;;2.80;;
3311;SDS011;1668;49.648;8.570;2022-08-11T06:27:00;5.70;;;2.73;;
3311;SDS011;1668;49.648;8.570;2022-08-11T06:29:30;8.20;;;2.90;;
3311;SDS011;1668;49.648;8.570;2022-08-11T06:31:59;4.17;;;2.57;;
3311;SDS011;1668;49.648;8.570;2022-08-11T06:34:39;4.63;;;2.20;;
3311;SDS011;1668;49.648;8.570;2022-08-11T06:37:29;5.30;;;2.37;;
3311;SDS011;1668;49.648;8.570;2022-08-11T06:40:07;5.30;;;2.57;;
3311;SDS011;1668;49.648;8.570;2022-08-11T06:42:45;3.93;;;2.47;;
3311;SDS011;1668;49.648;8.570;2022-08-11T06:45:23;4.23;;;2.60;;
3311;SDS011;1668;49.648;8.570;2022-08-11T06:47:57;4.30;;;2.80;;
3311;SDS011;1668;49.648;8.570;2022-08-11T06:50:27;5.53;;;2.53;;
3311;SDS011;1668;49.648;8.570;2022-08-11T06:53:16;3.70;;;2.40;;
3311;SDS011;1668;49.648;8.570;2022-08-11T06:55:45;4.90;;;2.60;;
3311;SDS011;1668;49.648;8.570;2022-08-11T06:58:33;7.53;;;2.70;;
3311;SDS011;1668;49.648;8.570;2022-08-11T07:01:22;3.50;;;2.47;;
3311;SDS011;1668;49.648;8.570;2022-08-11T07:03:59;4.03;;;2.30;;
3311;SDS011;1668;49.648;8.570;2022-08-11T07:06:33;3.30;;;2.60;;
3311;SDS011;1668;49.648;8.570;2022-08-11T07:09:12;2.97;;;2.50;;
3311;SDS011;1668;49.648;8.570;2022-08-11T07:15:25;6.00;;;2.60;;
3311;SDS011;1668;49.648;8.570;2022-08-11T07:18:11;5.10;;;2.63;;
3311;SDS011;1668;49.648;8.570;2022-08-11T07:21:08;3.73;;;2.60;;
3311;SDS011;1668;49.648;8.570;2022-08-11T07:23:55;6.90;;;2.67;;
3311;SDS011;1668;49.648;8.570;2022-08-11T07:26:47;5.90;;;2.73;;
3311;SDS011;1668;49.648;8.570;2022-08-11T07:29:34;5.13;;;2.20;;
3311;SDS011;1668;49.648;8.570;2022-08-11T07:32:08;6.30;;;3.10;;
3311;SDS011;1668;49.648;8.570;2022-08-11T07:34:45;3.80;;;2.60;;
3311;SDS011;1668;49.648;8.570;2022-08-11T07:37:17;5.50;;;2.97;;
3311;SDS011;1668;49.648;8.570;2022-08-11T07:39:46;4.40;;;2.70;;
3311;SDS011;1668;49.648;8.570;2022-08-11T07:42:20;3.07;;;2.60;;
3311;SDS011;1668;49.648;8.570;2022-08-11T07:44:52;3.70;;;2.70;;
3311;SDS011;1668;49.648;8.570;2022-08-11T07:47:39;4.17;;;3.00;;
3311;SDS011;1668;49.648;8.570;2022-08-11T07:50:25;2.80;;;2.50;;
3311;SDS011;1668;49.648;8.570;2022-08-11T07:53:09;4.50;;;2.67;;
3311;SDS011;1668;49.648;8.570;2022-08-11T07:55:38;6.30;;;3.10;;
3311;SDS011;1668;49.648;8.570;2022-08-11T07:58:07;3.60;;;2.40;;
3311;SDS011;1668;49.648;8.570;2022-08-11T08:00:53;3.80;;;2.40;;
3311;SDS011;1668;49.648;8.570;2022-08-11T08:03:40;4.17;;;3.07;;
3311;SDS011;1668;49.648;8.570;2022-08-11T08:06:26;5.17;;;2.60;;
3311;SDS011;1668;49.648;8.570;2022-08-11T08:09:12;4.43;;;2.40;;
3311;SDS011;1668;49.648;8.570;2022-08-11T08:11:59;11.87;;;2.90;;
3311;SDS011;1668;49.648;8.570;2022-08-11T08:14:47;5.50;;;2.87;;
3311;SDS011;1668;49.648;8.570;2022-08-11T08:17:32;3.73;;;2.47;;
3311;SDS011;1668;49.648;8.570;2022-08-11T08:20:18;3.10;;;2.70;;
3311;SDS011;1668;49.648;8.570;2022-08-11T08:22:49;3.47;;;2.70;;
3311;SDS011;1668;49.648;8.570;2022-08-11T08:25:20;20.10;;;3.23;;
3311;SDS011;1668;49.648;8.570;2022-08-11T08:27:49;5.93;;;2.67;;
3311;SDS011;1668;49.648;8.570;2022-08-11T08:30:18;4.80;;;2.70;;
3311;SDS011;1668;49.648;8.570;2022-08-11T08:33:03;4.33;;;2.60;;
3311;SDS011;1668;49.648;8.570;2022-08-11T08:35:30;3.17;;;2.40;;
3311;SDS011;1668;49.648;8.570;2022-08-11T08:37:58;5.80;;;2.63;;
3311;SDS011;1668;49.648;8.570;2022-08-11T08:40:26;4.63;;;2.70;;
3311;SDS011;1668;49.648;8.570;2022-08-11T08:42:54;3.70;;;2.57;;
3311;SDS011;1668;49.648;8.570;2022-08-11T08:45:23;3.60;;;2.60;;
3311;SDS011;1668;49.648;8.570;2022-08-11T08:47:52;3.00;;;2.30;;
3311;SDS011;1668;49.648;8.570;2022-08-11T08:50:25;4.90;;;2.43;;
3311;SDS011;1668;49.648;8.570;2022-08-11T08:53:11;4.67;;;2.20;;
3311;SDS011;1668;49.648;8.570;2022-08-11T08:55:39;4.13;;;2.90;;
3311;SDS011;1668;49.648;8.570;2022-08-11T08:58:07;3.00;;;2.30;;
3311;SDS011;1668;49.648;8.570;2022-08-11T09:00:40;4.70;;;2.43;;
3311;SDS011;1668;49.648;8.570;2022-08-11T09:03:10;3.53;;;2.40;;
3311;SDS011;1668;49.648;8.570;2022-08-11T09:05:38;3.17;;;2.33;;
3311;SDS011;1668;49.648;8.570;2022-08-11T09:08:06;3.87;;;2.17;;
3311;SDS011;1668;49.648;8.570;2022-08-11T09:10:34;2.73;;;2.00;;
3311;SDS011;1668;49.648;8.570;2022-08-11T09:13:03;4.50;;;2.67;;
3311;SDS011;1668;49.648;8.570;2022-08-11T09:15:32;5.30;;;2.60;;
3311;SDS011;1668;49.648;8.570;2022-08-11T09:18:03;3.83;;;2.63;;
3311;SDS011;1668;49.648;8.570;2022-08-11T09:20:34;2.40;;;2.20;;
3311;SDS011;1668;49.648;8.570;2022-08-11T09:23:03;5.90;;;2.47;;
3311;SDS011;1668;49.648;8.570;2022-08-11T09:25:50;5.60;;;2.23;;
3311;SDS011;1668;49.648;8.570;2022-08-11T09:28:38;2.27;;;2.07;;
3311;SDS011;1668;49.648;8.570;2022-08-11T09:31:07;4.20;;;2.13;;
3311;SDS011;1668;49.648;8.570;2022-08-11T09:33:38;3.03;;;2.10;;
3311;SDS011;1668;49.648;8.570;2022-08-11T09:36:06;6.73;;;2.43;;
3311;SDS011;1668;49.648;8.570;2022-08-11T09:38:52;2.90;;;2.07;;
3311;SDS011;1668;49.648;8.570;2022-08-11T09:41:40;5.33;;;2.07;;
3311;SDS011;1668;49.648;8.570;2022-08-11T09:44:10;5.93;;;2.47;;
3311;SDS011;1668;49.648;8.570;2022-08-11T09:46:55;2.97;;;2.10;;
3311;SDS011;1668;49.648;8.570;2022-08-11T09:49:25;6.67;;;2.10;;
3311;SDS011;1668;49.648;8.570;2022-08-11T09:51:53;4.57;;;1.97;;
3311;SDS011;1668;49.648;8.570;2022-08-11T09:54:21;2.60;;;2.10;;
3311;SDS011;1668;49.648;8.570;2022-08-11T09:56:50;2.70;;;1.90;;
3311;SDS011;1668;49.648;8.570;2022-08-11T09:59:36;5.47;;;2.53;;
3311;SDS011;1668;49.648;8.570;2022-08-11T10:02:03;3.80;;;2.47;;
3311;SDS011;1668;49.648;8.570;2022-08-11T10:04:34;4.30;;;2.13;;
3311;SDS011;1668;49.648;8.570;2022-08-11T10:07:06;5.57;;;2.03;;
3311;SDS011;1668;49.648;8.570;2022-08-11T10:09:36;4.63;;;1.87;;
3311;SDS011;1668;49.648;8.570;2022-08-11T10:12:05;2.40;;;1.80;;
3311;SDS011;1668;49.648;8.570;2022-08-11T10:14:36;2.37;;;2.00;;
3311;SDS011;1668;49.648;8.570;2022-08-11T10:17:26;4.90;;;1.80;;
3311;SDS011;1668;49.648;8.570;2022-08-11T10:19:58;4.00;;;2.00;;
3311;SDS011;1668;49.648;8.570;2022-08-11T10:22:32;6.10;;;2.33;;
3311;SDS011;1668;49.648;8.570;2022-08-11T10:25:18;4.63;;;2.30;;
3311;SDS011;1668;49.648;8.570;2022-08-11T10:28:03;3.13;;;2.40;;
3311;SDS011;1668;49.648;8.570;2022-08-11T10:30:34;3.57;;;2.40;;
3311;SDS011;1668;49.648;8.570;2022-08-11T10:33:20;4.43;;;2.07;;
3311;SDS011;1668;49.648;8.570;2022-08-11T10:36:07;4.73;;;2.07;;
3311;SDS011;1668;49.648;8.570;2022-08-11T10:38:34;6.97;;;2.67;;
3311;SDS011;1668;49.648;8.570;2022-08-11T10:41:02;3.10;;;1.90;;
3311;SDS011;1668;49.648;8.570;2022-08-11T10:43:48;6.23;;;2.40;;
3311;SDS011;1668;49.648;8.570;2022-08-11T10:46:18;5.13;;;2.30;;
3311;SDS011;1668;49.648;8.570;2022-08-11T10:49:03;2.87;;;2.20;;
3311;SDS011;1668;49.648;8.570;2022-08-11T10:51:33;3.20;;;2.50;;
3311;SDS011;1668;49.648;8.570;2022-08-11T10:54:18;3.27;;;2.30;;
3311;SDS011;1668;49.648;8.570;2022-08-11T10:57:04;3.60;;;2.50;;
3311;SDS011;1668;49.648;8.570;2022-08-11T10:59:49;2.83;;;2.43;;
3311;SDS011;1668;49.648;8.570;2022-08-11T11:02:16;7.30;;;2.30;;
3311;SDS011;1668;49.648;8.570;2022-08-11T11:04:54;5.70;;;2.20;;
3311;SDS011;1668;49.648;8.570;2022-08-11T11:07:35;3.03;;;2.40;;
3311;SDS011;1668;49.648;8.570;2022-08-11T11:10:04;2.80;;;2.27;;
3311;SDS011;1668;49.648;8.570;2022-08-11T11:12:34;4.03;;;2.70;;
3311;SDS011;1668;49.648;8.570;2022-08-11T11:15:23;7.13;;;2.90;;
3311;SDS011;1668;49.648;8.570;2022-08-11T11:18:10;3.73;;;2.47;;
3311;SDS011;1668;49.648;8.570;2022-08-11T11:20:41;3.47;;;2.70;;
3311;SDS011;1668;49.648;8.570;2022-08-11T11:23:13;5.80;;;2.47;;
3311;SDS011;1668;49.648;8.570;2022-08-11T11:25:54;7.20;;;2.60;;
3311;SDS011;1668;49.648;8.570;2022-08-11T11:32:02;3.40;;;2.50;;
3311;SDS011;1668;49.648;8.570;2022-08-11T11:34:50;4.63;;;2.30;;
3311;SDS011;1668;49.648;8.570;2022-08-11T11:37:37;3.03;;;2.20;;
3311;SDS011;1668;49.648;8.570;2022-08-11T11:40:09;3.77;;;2.40;;
3311;SDS011;1668;49.648;8.570;2022-08-11T11:42:38;3.33;;;2.40;;
3311;SDS011;1668;49.648;8.570;2022-08-11T11:45:07;2.73;;;2.10;;
3311;SDS011;1668;49.648;8.570;2022-08-11T11:47:36;4.80;;;2.40;;
3311;SDS011;1668;49.648;8.570;2022-08-11T11:50:04;5.00;;;2.90;;
3311;SDS011;1668;49.648;8.570;2022-08-11T11:52:33;3.23;;;2.30;;
3311;SDS011;1668;49.648;8.570;2022-08-11T11:55:03;4.50;;;2.63;;
3311;SDS011;1668;49.648;8.570;2022-08-11T11:57:33;3.50;;;2.60;;
3311;SDS011;1668;49.648;8.570;2022-08-11T12:00:20;3.93;;;2.50;;
3311;SDS011;1668;49.648;8.570;2022-08-11T12:03:06;3.23;;;2.50;;
3311;SDS011;1668;49.648;8.570;2022-08-11T12:05:35;3.60;;;2.30;;
3311;SDS011;1668;49.648;8.570;2022-08-11T12:08:03;3.87;;;2.60;;
3311;SDS011;1668;49.648;8.570;2022-08-11T12:10:44;3.33;;;2.37;;
3311;SDS011;1668;49.648;8.570;2022-08-11T12:13:14;2.53;;;2.23;;
3311;SDS011;1668;49.648;8.570;2022-08-11T12:16:00;3.60;;;2.20;;
3311;SDS011;1668;49.648;8.570;2022-08-11T12:18:31;5.20;;;2.60;;
3311;SDS011;1668;49.648;8.570;2022-08-11T12:21:00;11.83;;;2.87;;
3311;SDS011;1668;49.648;8.570;2022-08-11T12:23:28;3.33;;;2.43;;
3311;SDS011;1668;49.648;8.570;2022-08-11T12:26:15;4.40;;;2.50;;
3311;SDS011;1668;49.648;8.570;2022-08-11T12:29:03;3.43;;;2.53;;
3311;SDS011;1668;49.648;8.570;2022-08-11T12:31:32;4.57;;;2.60;;
3311;SDS011;1668;49.648;8.570;2022-08-11T12:34:00;3.87;;;2.20;;
3311;SDS011;1668;49.648;8.570;2022-08-11T12:36:29;3.00;;;2.40;;
3311;SDS011;1668;49.648;8.570;2022-08-11T12:39:00;3.53;;;2.57;;
3311;SDS011;1668;49.648;8.570;2022-08-11T12:41:30;3.00;;;2.67;;
3311;SDS011;1668;49.648;8.570;2022-08-11T12:44:18;3.77;;;2.60;;
3311;SDS011;1668;49.648;8.570;2022-08-11T12:47:05;2.80;;;2.43;;
3311;SDS011;1668;49.648;8.570;2022-08-11T12:49:35;2.47;;;2.27;;
3311;SDS011;1668;49.648;8.570;2022-08-11T12:52:27;3.63;;;2.80;;
3311;SDS011;1668;49.648;8.570;2022-08-11T12:54:59;6.40;;;2.63;;
3311;SDS011;1668;49.648;8.570;2022-08-11T12:57:32;3.73;;;2.13;;
3311;SDS011;1668;49.648;8.570;2022-08-11T13:00:21;4.47;;;2.10;;
3311;SDS011;1668;49.648;8.570;2022-08-11T13:03:08;6.13;;;2.17;;
3311;SDS011;1668;49.648;8.570;2022-08-11T13:05:55;3.40;;;2.53;;
3311;SDS011;1668;49.648;8.570;2022-08-11T13:08:24;6.23;;;2.07;;
3311;SDS011;1668;49.648;8.570;2022-08-11T13:10:54;3.60;;;2.23;;
3311;SDS011;1668;49.648;8.570;2022-08-11T13:13:40;3.50;;;2.10;;
3311;SDS011;1668;49.648;8.570;2022-08-11T13:16:09;4.07;;;2.33;;
3311;SDS011;1668;49.648;8.570;2022-08-11T13:18:39;6.30;;;2.30;;
3311;SDS011;1668;49.648;8.570;2022-08-11T13:21:07;4.87;;;2.20;;
3311;SDS011;1668;49.648;8.570;2022-08-11T13:23:36;3.87;;;2.27;;
3311;SDS011;1668;49.648;8.570;2022-08-11T13:26:04;4.30;;;2.97;;
3311;SDS011;1668;49.648;8.570;2022-08-11T13:28:33;5.13;;;2.27;;
3311;SDS011;1668;49.648;8.570;2022-08-11T13:31:00;2.57;;;2.30;;
3311;SDS011;1668;49.648;8.570;2022-08-11T13:33:41;2.40;;;2.10;;
3311;SDS011;1668;49.648;8.570;2022-08-11T13:36:11;2.77;;;2.37;;
3311;SDS011;1668;49.648;8.570;2022-08-11T13:38:40;3.80;;;2.20;;
3311;SDS011;1668;49.648;8.570;2022-08-11T13:41:09;6.10;;;1.90;;
3311;SDS011;1668;49.648;8.570;2022-08-11T13:43:54;3.10;;;2.03;;
3311;SDS011;1668;49.648;8.570;2022-08-11T13:46:21;3.90;;;2.40;;
3311;SDS011;1668;49.648;8.570;2022-08-11T13:48:51;3.10;;;1.73;;
3311;SDS011;1668;49.648;8.570;2022-08-11T13:51:21;2.70;;;2.37;;
3311;SDS011;1668;49.648;8.570;2022-08-11T13:53:59;2.40;;;2.10;;
3311;SDS011;1668;49.648;8.570;2022-08-11T13:56:28;2.10;;;1.90;;
3311;SDS011;1668;49.648;8.570;2022-08-11T13:58:56;3.57;;;2.40;;
3311;SDS011;1668;49.648;8.570;2022-08-11T14:01:25;3.10;;;2.40;;
3311;SDS011;1668;49.648;8.570;2022-08-11T14:04:00;2.33;;;1.80;;
3311;SDS011;1668;49.648;8.570;2022-08-11T14:06:32;4.13;;;2.50;;
3311;SDS011;1668;49.648;8.570;2022-08-11T14:09:00;3.50;;;2.10;;
3311;SDS011;1668;49.648;8.570;2022-08-11T14:11:29;3.43;;;2.10;;
3311;SDS011;1668;49.648;8.570;2022-08-11T14:14:16;3.53;;;2.27;;
3311;SDS011;1668;49.648;8.570;2022-08-11T14:16:48;2.57;;;2.10;;
3311;SDS011;1668;49.648;8.570;2022-08-11T14:19:18;2.40;;;2.20;;
3311;SDS011;1668;49.648;8.570;2022-08-11T14:21:49;3.13;;;2.03;;
3311;SDS011;1668;49.648;8.570;2022-08-11T14:24:33;3.17;;;2.10;;
3311;SDS011;1668;49.648;8.570;2022-08-11T14:27:01;2.73;;;2.20;;
3311;SDS011;1668;49.648;8.570;2022-08-11T14:29:30;3.30;;;1.93;;
3311;SDS011;1668;49.648;8.570;2022-08-11T14:32:03;2.20;;;2.00;;
3311;SDS011;1668;49.648;8.570;2022-08-11T14:34:32;2.60;;;1.77;;
3311;SDS011;1668;49.648;8.570;2022-08-11T14:37:01;4.03;;;2.10;;
3311;SDS011;1668;49.648;8.570;2022-08-11T14:39:32;4.00;;;2.27;;
3311;SDS011;1668;49.648;8.570;2022-08-11T14:42:04;3.23;;;1.87;;
3311;SDS011;1668;49.648;8.570;2022-08-11T14:44:50;3.40;;;1.97;;
3311;SDS011;1668;49.648;8.570;2022-08-11T14:47:38;2.33;;;1.93;;
3311;SDS011;1668;49.648;8.570;2022-08-11T14:50:10;2.13;;;1.80;;
3311;SDS011;1668;49.648;8.570;2022-08-11T14:52:43;2.50;;;2.23;;
3311;SDS011;1668;49.648;8.570;2022-08-11T14:55:14;3.23;;;2.07;;
3311;SDS011;1668;49.648;8.570;2022-08-11T14:58:00;3.07;;;2.13;;
3311;SDS011;1668;49.648;8.570;2022-08-11T15:00:27;3.73;;;1.93;;
3311;SDS011;1668;49.648;8.570;2022-08-11T15:02:55;3.20;;;1.70;;
3311;SDS011;1668;49.648;8.570;2022-08-11T15:05:36;3.30;;;1.90;;
3311;SDS011;1668;49.648;8.570;2022-08-11T15:08:05;3.20;;;1.90;;
3311;SDS011;1668;49.648;8.570;2022-08-11T15:10:33;2.10;;;1.87;;
3311;SDS011;1668;49.648;8.570;2022-08-11T15:13:04;2.73;;;2.30;;
3311;SDS011;1668;49.648;8.570;2022-08-11T15:15:32;5.23;;;1.77;;
3311;SDS011;1668;49.648;8.570;2022-08-11T15:18:18;2.17;;;1.97;;
3311;SDS011;1668;49.648;8.570;2022-08-11T15:20:49;1.90;;;1.60;;
3311;SDS011;1668;49.648;8.570;2022-08-11T15:23:34;1.67;;;1.50;;
3311;SDS011;1668;49.648;8.570;2022-08-11T15:26:25;3.20;;;2.10;;
3311;SDS011;1668;49.648;8.570;2022-08-11T15:29:16;2.30;;;1.70;;
3311;SDS011;1668;49.648;8.570;2022-08-11T15:32:05;2.63;;;1.80;;
3311;SDS011;1668;49.648;8.570;2022-08-11T15:34:54;6.63;;;1.70;;
3311;SDS011;1668;49.648;8.570;2022-08-11T15:37:43;4.87;;;1.67;;
3311;SDS011;1668;49.648;8.570;2022-08-11T15:40:12;1.70;;;1.50;;
3311;SDS011;1668;49.648;8.570;2022-08-11T15:43:02;2.00;;;1.70;;
3311;SDS011;1668;49.648;8.570;2022-08-11T15:45:51;2.63;;;1.67;;
3311;SDS011;1668;49.648;8.570;2022-08-11T15:48:28;3.37;;;1.60;;
3311;SDS011;1668;49.648;8.570;2022-08-11T15:51:02;2.80;;;1.80;;
3311;SDS011;1668;49.648;8.570;2022-08-11T15:53:40;4.73;;;1.90;;
3311;SDS011;1668;49.648;8.570;2022-08-11T15:56:09;4.83;;;1.80;;
3311;SDS011;1668;49.648;8.570;2022-08-11T15:58:38;3.77;;;1.60;;
3311;SDS011;1668;49.648;8.570;2022-08-11T16:01:32;3.10;;;1.60;;
3311;SDS011;1668;49.648;8.570;2022-08-11T16:04:20;2.50;;;1.87;;
3311;SDS011;1668;49.648;8.570;2022-08-11T16:06:50;3.00;;;1.87;;
3311;SDS011;1668;49.648;8.570;2022-08-11T16:09:23;2.03;;;1.50;;
3311;SDS011;1668;49.648;8.570;2022-08-11T16:11:55;2.60;;;1.73;;
3311;SDS011;1668;49.648;8.570;2022-08-11T16:14:25;2.10;;;1.70;;
3311;SDS011;1668;49.648;8.570;2022-08-11T16:17:11;1.47;;;1.37;;
3311;SDS011;1668;49.648;8.570;2022-08-11T16:19:41;3.27;;;1.73;;
3311;SDS011;1668;49.648;8.570;2022-08-11T16:22:11;3.27;;;1.60;;
3311;SDS011;1668;49.648;8.570;2022-08-11T16:24:43;1.40;;;1.30;;
3311;SDS011;1668;49.648;8.570;2022-08-11T16:27:12;1.77;;;1.27;;
3311;SDS011;1668;49.648;8.570;2022-08-11T16:29:44;1.87;;;1.77;;
3311;SDS011;1668;49.648;8.570;2022-08-11T16:32:14;2.33;;;1.50;;
3311;SDS011;1668;49.648;8.570;2022-08-11T16:34:48;1.93;;;1.60;;
3311;SDS011;1668;49.648;8.570;2022-08-11T16:37:35;3.43;;;1.63;;
3311;SDS011;1668;49.648;8.570;2022-08-11T16:40:22;2.13;;;1.53;;
3311;SDS011;1668;49.648;8.570;2022-08-11T16:42:50;1.47;;;1.30;;
3311;SDS011;1668;49.648;8.570;2022-08-11T16:45:36;4.10;;;1.53;;
3311;SDS011;1668;49.648;8.570;2022-08-11T16:48:22;2.20;;;1.60;;
3311;SDS011;1668;49.648;8.570;2022-08-11T16:50:54;1.83;;;1.70;;
3311;SDS011;1668;49.648;8.570;2022-08-11T16:53:23;2.27;;;1.70;;
3311;SDS011;1668;49.648;8.570;2022-08-11T16:55:52;2.93;;;1.60;;
3311;SDS011;1668;49.648;8.570;2022-08-11T16:58:20;10.10;;;2.10;;
3311;SDS011;1668;49.648;8.570;2022-08-11T17:01:07;8.17;;;1.83;;
3311;SDS011;1668;49.648;8.570;2022-08-11T17:03:35;10.33;;;1.70;;
3311;SDS011;1668;49.648;8.570;2022-08-11T17:06:33;6.53;;;2.00;;
3311;SDS011;1668;49.648;8.570;2022-08-11T17:09:21;14.33;;;1.60;;
3311;SDS011;1668;49.648;8.570;2022-08-11T17:12:09;1.60;;;1.50;;
3311;SDS011;1668;49.648;8.570;2022-08-11T17:14:56;6.90;;;2.30;;
3311;SDS011;1668;49.648;8.570;2022-08-11T17:17:26;2.10;;;1.60;;
3311;SDS011;1668;49.648;8.570;2022-08-11T17:20:00;2.27;;;1.50;;
3311;SDS011;1668;49.648;8.570;2022-08-11T17:22:31;2.33;;;1.73;;
3311;SDS011;1668;49.648;8.570;2022-08-11T17:25:18;2.47;;;1.60;;